aviador You're here:

SASA Decoded Metar

SALTA in ARGENTINA
Report Time2018-07-21 07:00:00
UTC Time2018-07-21 08:01:29
Flight Rules vfr VFR
WindCalm
Visibility9999 m
Phenomena:N/A
Clouds:N/A
Expected CloudBase > 400 ft AGL from Temp-Dew spread
CeilingNone
Temp-1°C (ISA -8)
Dew Point-2°C (93% RH)
AAT-3.3°C
QNH1026 hPa
Density Alt2,657 ft
Elevation3,990 ft
Report Wrong Elevation
Raw Report
SASA 210700Z 00000KT CAVOK M01/M02 Q1026=

Extra information for SASA:More info

Metar Taf Metar & Taf Last 4 Metars F.Rules Stats Wind Profile Meteogram Temp Stats Airport Information Weather charts Add Link Nearby VenuesMetar ALERT Operation Metar Decoded Social comments